Time;durP1;ratioP1;P1;durP2;ratioP2;P2;SDS_P1;SDS_P2;PMS_P1;PMS_P2;Temp;Humidity;BMP_temperature;BMP_pressure;BME280_temperature;BME280_humidity;BME280_pressure;Samples;Min_cycle;Max_cycle;Signal;HPM_P1;HPM_P2
2023/05/20 00:00:49;;;;;;;;;;;12.30;99.90;;;;;;5049911;28;20396;-64
2023/05/20 00:03:21;;;;;;;;;;;12.30;99.90;;;;;;5063806;28;19924;-64
2023/05/20 00:05:53;;;;;;;;;;;12.20;99.90;;;;;;5069609;28;19929;-64
2023/05/20 00:08:20;;;;;;;;;;;12.20;99.90;;;;;;5069694;28;19967;-64
2023/05/20 00:10:51;;;;;;;;;;;12.20;99.90;;;;;;5061550;28;20321;-64
2023/05/20 00:13:23;;;;;;;;;;;12.20;99.90;;;;;;5069030;28;19924;-64
2023/05/20 00:15:55;;;;;;;;;;;12.20;99.90;;;;;;5063624;28;19924;-64
2023/05/20 00:18:27;;;;;;;;;;;12.20;99.90;;;;;;5064497;28;20308;-64
2023/05/20 00:20:58;;;;;;;;;;;12.20;99.90;;;;;;5069440;28;19928;-64
2023/05/20 00:23:30;;;;;;;;;;;12.20;99.90;;;;;;5064872;28;19932;-64
2023/05/20 00:26:03;;;;;;;;;;;12.30;99.90;;;;;;5066662;28;19929;-64
2023/05/20 00:28:35;;;;;;;;;;;12.30;99.90;;;;;;5067471;28;19929;-64
2023/05/20 00:31:07;;;;;;;;;;;12.30;99.90;;;;;;5063217;28;19928;-64
2023/05/20 00:33:35;;;;;;;;;;;12.30;99.90;;;;;;5050352;28;20614;-64
2023/05/20 00:36:06;;;;;;;;;;;12.30;99.90;;;;;;5060804;28;19974;-64
2023/05/20 00:38:38;;;;;;;;;;;12.30;99.90;;;;;;5058300;28;19929;-64
2023/05/20 00:41:10;;;;;;;;;;;12.30;99.90;;;;;;5063376;28;20288;-64
2023/05/20 00:43:37;;;;;;;;;;;12.30;99.90;;;;;;5060602;28;19983;-64
2023/05/20 00:46:09;;;;;;;;;;;12.30;99.90;;;;;;5047101;28;19925;-64
2023/05/20 00:48:40;;;;;;;;;;;12.30;99.90;;;;;;5063217;28;19925;-64
2023/05/20 00:51:13;;;;;;;;;;;12.30;99.90;;;;;;5064358;28;19947;-64
2023/05/20 00:53:40;;;;;;;;;;;12.30;99.90;;;;;;5048034;28;19968;-64
2023/05/20 00:56:12;;;;;;;;;;;12.30;99.90;;;;;;5066552;28;19928;-64
2023/05/20 00:58:44;;;;;;;;;;;12.30;99.90;;;;;;5058400;28;19925;-64
2023/05/20 01:01:15;;;;;;;;;;;12.30;99.90;;;;;;5066095;28;19925;-64
2023/05/20 01:03:47;;;;;;;;;;;12.30;99.90;;;;;;5057421;28;20728;-64
2023/05/20 01:06:19;;;;;;;;;;;12.30;99.90;;;;;;5066732;28;19928;-64
2023/05/20 01:08:51;;;;;;;;;;;12.30;99.90;;;;;;5060186;28;19924;-64
2023/05/20 01:11:23;;;;;;;;;;;12.30;99.90;;;;;;5061872;28;20027;-64
2023/05/20 01:13:59;;;;;;;;;;;12.30;99.90;;;;;;5067509;28;19935;-64
2023/05/20 01:16:32;;;;;;;;;;;12.30;99.90;;;;;;5075271;28;20308;-64
2023/05/20 01:19:11;;;;;;;;;;;12.20;99.90;;;;;;5063269;28;19924;-64
2023/05/20 01:21:44;;;;;;;;;;;12.30;99.90;;;;;;5059300;28;20311;-64
2023/05/20 01:24:16;;;;;;;;;;;12.20;99.90;;;;;;5051453;28;19999;-64
2023/05/20 01:26:49;;;;;;;;;;;12.20;99.90;;;;;;5055154;28;19929;-64
2023/05/20 01:29:17;;;;;;;;;;;12.20;99.90;;;;;;5067405;28;20016;-64
2023/05/20 01:31:50;;;;;;;;;;;12.20;99.90;;;;;;5058651;28;20502;-64
2023/05/20 01:34:22;;;;;;;;;;;12.20;99.90;;;;;;5066928;28;19935;-64
2023/05/20 01:36:54;;;;;;;;;;;12.10;99.90;;;;;;5059166;28;19925;-64
2023/05/20 01:39:26;;;;;;;;;;;12.20;99.90;;;;;;5063793;28;20016;-64
2023/05/20 01:41:59;;;;;;;;;;;12.20;99.90;;;;;;5060654;28;20055;-64
2023/05/20 01:44:31;;;;;;;;;;;12.20;99.90;;;;;;5057199;28;19925;-64
2023/05/20 01:47:03;;;;;;;;;;;12.20;99.90;;;;;;5050231;28;19936;-64
2023/05/20 01:49:35;;;;;;;;;;;12.10;99.90;;;;;;5056079;28;19947;-64
2023/05/20 01:52:07;;;;;;;;;;;12.10;99.90;;;;;;5059083;28;20300;-64
2023/05/20 01:54:39;;;;;;;;;;;12.10;99.90;;;;;;5055418;28;19932;-64
2023/05/20 01:57:06;;;;;;;;;;;12.10;99.90;;;;;;5060416;28;20362;-64
2023/05/20 01:59:38;;;;;;;;;;;12.00;99.90;;;;;;5057658;28;20569;-64
2023/05/20 02:02:05;;;;;;;;;;;12.10;99.90;;;;;;5063305;28;21288;-64
2023/05/20 02:04:36;;;;;;;;;;;12.00;99.90;;;;;;5060245;28;19924;-64
2023/05/20 02:07:08;;;;;;;;;;;12.00;99.90;;;;;;5060110;28;19928;-64
2023/05/20 02:09:40;;;;;;;;;;;12.00;99.90;;;;;;5061019;28;20653;-64
2023/05/20 02:12:15;;;;;;;;;;;12.00;99.90;;;;;;5058687;28;19935;-64
2023/05/20 02:14:49;;;;;;;;;;;12.00;99.90;;;;;;5054044;28;19928;-64
2023/05/20 02:17:21;;;;;;;;;;;12.00;99.90;;;;;;5067296;28;20030;-64
2023/05/20 02:19:53;;;;;;;;;;;12.10;99.90;;;;;;5058940;28;19929;-64
2023/05/20 02:22:19;;;;;;;;;;;12.00;99.90;;;;;;5063050;28;19925;-64
2023/05/20 02:24:51;;;;;;;;;;;12.10;99.90;;;;;;5051390;28;19955;-64
2023/05/20 02:27:23;;;;;;;;;;;12.10;99.90;;;;;;5064953;28;19935;-64
2023/05/20 02:29:55;;;;;;;;;;;12.10;99.90;;;;;;5065272;28;19947;-64
2023/05/20 02:32:27;;;;;;;;;;;12.10;99.90;;;;;;5064381;28;19929;-64
2023/05/20 02:34:59;;;;;;;;;;;12.10;99.90;;;;;;5059820;28;19936;-64
2023/05/20 02:37:31;;;;;;;;;;;12.10;99.90;;;;;;5056209;28;19925;-64
2023/05/20 02:40:03;;;;;;;;;;;12.10;99.90;;;;;;5060770;28;19924;-64
2023/05/20 02:42:37;;;;;;;;;;;12.10;99.90;;;;;;5060966;28;19931;-64
2023/05/20 02:45:04;;;;;;;;;;;12.10;99.90;;;;;;5061591;28;20408;-64
2023/05/20 02:47:37;;;;;;;;;;;12.10;99.90;;;;;;5065597;28;19925;-64
2023/05/20 02:50:09;;;;;;;;;;;12.10;99.90;;;;;;5067867;28;19934;-64
2023/05/20 02:52:41;;;;;;;;;;;12.10;99.90;;;;;;5063874;28;20304;-64
2023/05/20 02:55:08;;;;;;;;;;;12.00;99.90;;;;;;5066694;28;19986;-64
2023/05/20 02:57:39;;;;;;;;;;;12.00;99.90;;;;;;5059130;28;19936;-65
2023/05/20 03:00:12;;;;;;;;;;;12.10;99.90;;;;;;5058242;28;20050;-65
2023/05/20 03:02:43;;;;;;;;;;;12.00;99.90;;;;;;5055153;28;19925;-64
2023/05/20 03:05:15;;;;;;;;;;;12.00;99.90;;;;;;5061216;28;19935;-64
2023/05/20 03:07:47;;;;;;;;;;;12.00;99.90;;;;;;5054724;28;19924;-64
2023/05/20 03:10:19;;;;;;;;;;;12.00;99.90;;;;;;5061243;28;19925;-64
2023/05/20 03:12:50;;;;;;;;;;;12.00;99.90;;;;;;5068866;28;19931;-64
2023/05/20 03:15:22;;;;;;;;;;;12.00;99.90;;;;;;5065266;28;19924;-64
2023/05/20 03:17:55;;;;;;;;;;;12.10;99.90;;;;;;5046967;28;19929;-64
2023/05/20 03:20:28;;;;;;;;;;;12.10;99.90;;;;;;5060248;28;20392;-64
2023/05/20 03:23:00;;;;;;;;;;;12.10;99.90;;;;;;5058588;28;20036;-64
2023/05/20 03:25:35;;;;;;;;;;;12.10;99.90;;;;;;5056112;28;19928;-64
2023/05/20 03:28:07;;;;;;;;;;;12.10;99.90;;;;;;5060809;28;19928;-64
2023/05/20 03:30:39;;;;;;;;;;;12.10;99.90;;;;;;5053546;28;19929;-64
2023/05/20 03:33:10;;;;;;;;;;;12.10;99.90;;;;;;5056170;28;20323;-64
2023/05/20 03:35:42;;;;;;;;;;;12.10;99.90;;;;;;5065225;28;19928;-64
2023/05/20 03:38:09;;;;;;;;;;;12.10;99.90;;;;;;5065289;28;19932;-64
2023/05/20 03:40:41;;;;;;;;;;;12.10;99.90;;;;;;5063264;28;19931;-64
2023/05/20 03:43:13;;;;;;;;;;;12.10;99.90;;;;;;5061317;28;19928;-64
2023/05/20 03:45:44;;;;;;;;;;;12.10;99.90;;;;;;5059872;28;20388;-64
2023/05/20 03:48:16;;;;;;;;;;;12.10;99.90;;;;;;5051717;28;19925;-65
2023/05/20 03:50:48;;;;;;;;;;;12.10;99.90;;;;;;5068413;28;20314;-64
2023/05/20 03:53:20;;;;;;;;;;;12.10;99.90;;;;;;5064773;28;19929;-64
2023/05/20 03:55:51;;;;;;;;;;;12.10;99.90;;;;;;5063578;28;19924;-64
2023/05/20 03:58:24;;;;;;;;;;;12.10;99.90;;;;;;5070192;28;19970;-64
2023/05/20 04:00:56;;;;;;;;;;;12.10;99.90;;;;;;5063757;28;19932;-65
2023/05/20 04:03:28;;;;;;;;;;;12.10;99.90;;;;;;5069589;28;19928;-64
2023/05/20 04:05:55;;;;;;;;;;;12.10;99.90;;;;;;5065854;28;19928;-64
2023/05/20 04:08:27;;;;;;;;;;;12.10;99.90;;;;;;5076500;28;19952;-64
2023/05/20 04:11:01;;;;;;;;;;;12.10;99.90;;;;;;5067433;28;19928;-64
2023/05/20 04:13:33;;;;;;;;;;;12.10;99.90;;;;;;5067627;28;19931;-64
2023/05/20 04:16:04;;;;;;;;;;;12.20;99.90;;;;;;5064339;28;20393;-64
2023/05/20 04:18:37;;;;;;;;;;;12.20;99.90;;;;;;5068024;28;19956;-64
2023/05/20 04:21:10;;;;;;;;;;;12.20;99.90;;;;;;5061741;28;20336;-65
2023/05/20 04:23:42;;;;;;;;;;;12.20;99.90;;;;;;5060162;28;19931;-64
2023/05/20 04:26:14;;;;;;;;;;;12.20;99.90;;;;;;5066475;28;20041;-64
2023/05/20 04:28:48;;;;;;;;;;;12.20;99.90;;;;;;5063969;28;19935;-64
2023/05/20 04:31:25;;;;;;;;;;;12.20;99.90;;;;;;5069236;28;20344;-64
2023/05/20 04:33:57;;;;;;;;;;;12.10;99.90;;;;;;5064279;28;19990;-64
2023/05/20 04:36:29;;;;;;;;;;;12.20;99.90;;;;;;5065486;28;20402;-64
2023/05/20 04:39:03;;;;;;;;;;;12.20;99.90;;;;;;5062357;28;19935;-64
2023/05/20 04:41:35;;;;;;;;;;;12.20;99.90;;;;;;5066527;28;20252;-64
2023/05/20 04:44:07;;;;;;;;;;;12.20;99.90;;;;;;5056428;28;20013;-65
2023/05/20 04:46:34;;;;;;;;;;;12.20;99.90;;;;;;5065078;28;20381;-64
2023/05/20 04:49:06;;;;;;;;;;;12.20;99.90;;;;;;5067064;28;19928;-65
2023/05/20 04:51:40;;;;;;;;;;;12.20;99.90;;;;;;5066097;28;19929;-64
2023/05/20 04:54:07;;;;;;;;;;;12.20;99.90;;;;;;5066763;28;19978;-65
2023/05/20 04:56:39;;;;;;;;;;;12.30;99.90;;;;;;5066533;28;20019;-64
2023/05/20 04:59:10;;;;;;;;;;;12.30;99.90;;;;;;5068045;28;19932;-65
2023/05/20 05:01:42;;;;;;;;;;;12.20;99.90;;;;;;5061623;28;19928;-64
2023/05/20 05:04:14;;;;;;;;;;;12.20;99.90;;;;;;5062784;28;19924;-64
2023/05/20 05:06:49;;;;;;;;;;;12.30;99.90;;;;;;5058521;28;19928;-64
2023/05/20 05:09:21;;;;;;;;;;;12.30;99.90;;;;;;5051607;28;19970;-64
2023/05/20 05:11:53;;;;;;;;;;;12.30;99.90;;;;;;5067125;28;20396;-64
2023/05/20 05:14:19;;;;;;;;;;;12.30;99.90;;;;;;5067658;28;19936;-64
2023/05/20 05:16:46;;;;;;;;;;;12.30;99.90;;;;;;5061958;28;19924;-64
2023/05/20 05:19:18;;;;;;;;;;;12.30;99.90;;;;;;5067524;28;19954;-64
2023/05/20 05:21:51;;;;;;;;;;;12.40;99.90;;;;;;5048171;28;19933;-64
2023/05/20 05:24:23;;;;;;;;;;;12.40;99.90;;;;;;5068730;28;19928;-64
2023/05/20 05:26:56;;;;;;;;;;;12.40;99.90;;;;;;5063650;28;19955;-64
2023/05/20 05:29:28;;;;;;;;;;;12.40;99.90;;;;;;5066618;28;19978;-64
2023/05/20 05:32:00;;;;;;;;;;;12.40;99.90;;;;;;5066747;28;20412;-64
2023/05/20 05:34:32;;;;;;;;;;;12.40;99.90;;;;;;5075779;28;20044;-64
2023/05/20 05:36:58;;;;;;;;;;;12.40;99.90;;;;;;5066304;28;19924;-64
2023/05/20 05:39:31;;;;;;;;;;;12.40;99.90;;;;;;5066837;28;20356;-64
2023/05/20 05:42:03;;;;;;;;;;;12.40;99.90;;;;;;5066622;28;19925;-64
2023/05/20 05:44:35;;;;;;;;;;;12.50;99.90;;;;;;5081110;28;19987;-64
2023/05/20 05:47:05;;;;;;;;;;;12.50;99.90;;;;;;5066879;28;20358;-64
2023/05/20 05:49:37;;;;;;;;;;;12.50;99.90;;;;;;5075070;28;19932;-64
2023/05/20 05:52:09;;;;;;;;;;;12.60;99.90;;;;;;5062674;28;19973;-64
2023/05/20 05:54:35;;;;;;;;;;;12.60;99.90;;;;;;5060139;28;19933;-64
2023/05/20 05:57:08;;;;;;;;;;;12.70;99.90;;;;;;5061381;28;19928;-64
2023/05/20 05:59:40;;;;;;;;;;;12.70;99.90;;;;;;5053610;28;19990;-64
2023/05/20 06:02:13;;;;;;;;;;;12.70;99.90;;;;;;5055584;28;19930;-64
2023/05/20 06:04:45;;;;;;;;;;;12.70;99.90;;;;;;5055770;28;19970;-65
2023/05/20 06:07:18;;;;;;;;;;;12.70;99.90;;;;;;5051380;28;19925;-66
2023/05/20 06:09:50;;;;;;;;;;;12.70;99.90;;;;;;5068107;28;20432;-68
2023/05/20 06:12:17;;;;;;;;;;;12.80;99.90;;;;;;5066883;28;19940;-64
2023/05/20 06:14:48;;;;;;;;;;;12.70;99.90;;;;;;5052345;28;19963;-64
2023/05/20 06:17:21;;;;;;;;;;;12.80;99.90;;;;;;5059145;28;20335;-64
2023/05/20 06:19:52;;;;;;;;;;;12.80;99.90;;;;;;5044842;28;19932;-65
2023/05/20 06:22:24;;;;;;;;;;;12.80;99.90;;;;;;5065437;28;20294;-64
2023/05/20 06:24:59;;;;;;;;;;;12.80;99.90;;;;;;5054930;28;20374;-63
2023/05/20 06:27:36;;;;;;;;;;;12.80;99.90;;;;;;5043093;28;19947;-65
2023/05/20 06:30:06;;;;;;;;;;;12.80;99.90;;;;;;5058441;28;19979;-64
2023/05/20 06:32:38;;;;;;;;;;;12.80;99.90;;;;;;5049119;28;19993;-65
2023/05/20 06:35:10;;;;;;;;;;;12.80;99.90;;;;;;5068780;28;19990;-64
2023/05/20 06:37:37;;;;;;;;;;;12.90;99.90;;;;;;5064568;28;20012;-64
2023/05/20 06:40:09;;;;;;;;;;;12.90;99.90;;;;;;5060659;28;20416;-64
2023/05/20 06:42:40;;;;;;;;;;;12.90;99.90;;;;;;5057772;28;20331;-64
2023/05/20 06:45:12;;;;;;;;;;;13.00;99.90;;;;;;5055232;28;19932;-64
2023/05/20 06:47:52;;;;;;;;;;;13.00;99.90;;;;;;5052326;28;19925;-64
2023/05/20 06:50:19;;;;;;;;;;;13.00;99.90;;;;;;5061295;28;19928;-64
2023/05/20 06:52:46;;;;;;;;;;;13.10;99.90;;;;;;5063405;28;19978;-64
2023/05/20 06:55:17;;;;;;;;;;;13.10;99.90;;;;;;5068485;28;19986;-65
2023/05/20 06:57:49;;;;;;;;;;;13.10;99.90;;;;;;5064668;28;20331;-65
2023/05/20 07:00:21;;;;;;;;;;;13.10;99.90;;;;;;5046654;28;19951;-64
2023/05/20 07:02:50;;;;;;;;;;;13.20;99.90;;;;;;5062706;28;19928;-65
2023/05/20 07:05:17;;;;;;;;;;;13.20;99.90;;;;;;5065601;28;19956;-66
2023/05/20 07:07:49;;;;;;;;;;;13.20;99.90;;;;;;5065442;28;20019;-65
2023/05/20 07:10:21;;;;;;;;;;;13.30;99.90;;;;;;5071237;28;20585;-65
2023/05/20 07:12:53;;;;;;;;;;;13.30;99.90;;;;;;5052380;28;19932;-65
2023/05/20 07:15:25;;;;;;;;;;;13.30;99.90;;;;;;5072280;28;19972;-65
2023/05/20 07:17:52;;;;;;;;;;;13.30;99.90;;;;;;5068700;28;19928;-65
2023/05/20 07:20:25;;;;;;;;;;;13.40;99.90;;;;;;5049526;28;20463;-64
2023/05/20 07:22:52;;;;;;;;;;;13.40;99.90;;;;;;5064793;28;20166;-65
2023/05/20 07:25:31;;;;;;;;;;;13.40;99.90;;;;;;5065381;28;19947;-65
2023/05/20 07:27:59;;;;;;;;;;;13.50;99.90;;;;;;5066709;28;19983;-65
2023/05/20 07:30:31;;;;;;;;;;;13.50;99.90;;;;;;5081820;28;19951;-65
2023/05/20 07:33:18;;;;;;;;;;;13.60;99.90;;;;;;5070201;28;19971;-64
2023/05/20 07:35:50;;;;;;;;;;;13.60;99.90;;;;;;5080619;28;19929;-65
2023/05/20 07:38:23;;;;;;;;;;;13.70;99.90;;;;;;5047800;28;19925;-65
2023/05/20 07:40:58;;;;;;;;;;;13.70;99.90;;;;;;5060240;28;20392;-66
2023/05/20 07:43:25;;;;;;;;;;;13.80;99.90;;;;;;5067398;28;20400;-66
2023/05/20 07:45:52;;;;;;;;;;;13.80;99.90;;;;;;5066528;28;19929;-65
2023/05/20 07:48:24;;;;;;;;;;;13.90;99.90;;;;;;5065525;28;19935;-66
2023/05/20 07:50:51;;;;;;;;;;;14.00;99.90;;;;;;5066077;28;19940;-68
2023/05/20 07:53:23;;;;;;;;;;;14.10;99.90;;;;;;5079983;28;19924;-67
2023/05/20 07:55:55;;;;;;;;;;;14.20;99.90;;;;;;5068737;28;19924;-67
2023/05/20 07:58:26;;;;;;;;;;;14.20;99.90;;;;;;5066822;28;20755;-66
2023/05/20 08:00:57;;;;;;;;;;;14.20;99.90;;;;;;5066671;28;19932;-66
2023/05/20 08:03:25;;;;;;;;;;;14.30;99.90;;;;;;5067412;28;19929;-66
2023/05/20 08:06:02;;;;;;;;;;;14.40;99.90;;;;;;5062931;28;19940;-66
2023/05/20 08:08:35;;;;;;;;;;;14.40;99.90;;;;;;5069236;28;20019;-65
2023/05/20 08:11:12;;;;;;;;;;;14.50;99.90;;;;;;5080228;28;20003;-65
2023/05/20 08:13:45;;;;;;;;;;;14.50;99.90;;;;;;5066596;28;19929;-65
2023/05/20 08:16:12;;;;;;;;;;;14.60;99.90;;;;;;5068288;28;19932;-66
2023/05/20 08:18:44;;;;;;;;;;;14.60;99.90;;;;;;5065343;28;19925;-65
2023/05/20 08:21:12;;;;;;;;;;;14.70;99.90;;;;;;5068930;28;19932;-64
2023/05/20 08:23:44;;;;;;;;;;;14.80;99.90;;;;;;5044050;28;20393;-65
2023/05/20 08:26:16;;;;;;;;;;;14.90;99.90;;;;;;5065035;28;19924;-65
2023/05/20 08:28:49;;;;;;;;;;;15.00;99.90;;;;;;5073739;28;19931;-65
2023/05/20 08:31:22;;;;;;;;;;;15.10;99.90;;;;;;5068532;28;19936;-64
2023/05/20 08:33:54;;;;;;;;;;;15.20;99.90;;;;;;5060601;28;19932;-64
2023/05/20 08:36:26;;;;;;;;;;;15.20;99.90;;;;;;5065601;28;19932;-64
2023/05/20 08:38:58;;;;;;;;;;;15.30;99.90;;;;;;5062786;28;19939;-64
2023/05/20 08:41:25;;;;;;;;;;;15.40;99.90;;;;;;5069074;28;19928;-64
2023/05/20 08:43:52;;;;;;;;;;;15.40;99.90;;;;;;5058187;28;19968;-64
2023/05/20 08:46:24;;;;;;;;;;;15.50;99.90;;;;;;5060432;28;19983;-64
2023/05/20 08:48:58;;;;;;;;;;;15.50;99.90;;;;;;5063289;28;19925;-64
2023/05/20 08:51:31;;;;;;;;;;;15.50;99.90;;;;;;5061781;28;20403;-64
2023/05/20 08:54:03;;;;;;;;;;;15.60;99.90;;;;;;5065227;28;20397;-65
2023/05/20 08:56:35;;;;;;;;;;;15.80;99.90;;;;;;5063633;28;19928;-64
2023/05/20 08:59:07;;;;;;;;;;;16.00;99.90;;;;;;5063754;28;19935;-64
2023/05/20 09:01:42;;;;;;;;;;;16.10;99.90;;;;;;5064085;28;19932;-64
2023/05/20 09:04:08;;;;;;;;;;;16.20;99.90;;;;;;5065724;28;20001;-65
2023/05/20 09:06:43;;;;;;;;;;;16.30;99.90;;;;;;5066717;28;20015;-64
2023/05/20 09:09:16;;;;;;;;;;;16.60;99.90;;;;;;5065927;28;19932;-64
2023/05/20 09:11:47;;;;;;;;;;;16.70;99.90;;;;;;5048208;28;20400;-65
2023/05/20 09:14:14;;;;;;;;;;;16.70;99.90;;;;;;5062964;28;19939;-64
2023/05/20 09:16:46;;;;;;;;;;;16.70;99.90;;;;;;5062965;28;19931;-64
2023/05/20 09:19:13;;;;;;;;;;;16.70;99.90;;;;;;5059789;28;19925;-64
2023/05/20 09:21:40;;;;;;;;;;;16.90;99.90;;;;;;5058606;28;19925;-65
2023/05/20 09:24:07;;;;;;;;;;;17.00;99.90;;;;;;5061046;28;19931;-64
2023/05/20 09:26:39;;;;;;;;;;;17.20;99.90;;;;;;5059024;28;19931;-64
2023/05/20 09:29:11;;;;;;;;;;;17.10;99.90;;;;;;5051818;28;19936;-64
2023/05/20 09:31:43;;;;;;;;;;;17.30;99.90;;;;;;5063397;28;19932;-65
2023/05/20 09:34:15;;;;;;;;;;;17.40;99.90;;;;;;5064840;28;19928;-65
2023/05/20 09:36:49;;;;;;;;;;;17.40;99.90;;;;;;5061082;28;19925;-65
2023/05/20 09:39:24;;;;;;;;;;;17.50;99.90;;;;;;5057835;28;20380;-64
2023/05/20 09:42:17;;;;;;;;;;;17.50;99.90;;;;;;5057198;28;19925;-65
2023/05/20 09:44:49;;;;;;;;;;;17.50;99.90;;;;;;5057141;28;19929;-64
2023/05/20 09:47:22;;;;;;;;;;;17.70;99.90;;;;;;5058999;28;19932;-64
2023/05/20 09:49:55;;;;;;;;;;;18.00;99.90;;;;;;5059553;28;19924;-65
2023/05/20 09:52:27;;;;;;;;;;;18.20;99.90;;;;;;5062108;28;20396;-64
2023/05/20 09:54:55;;;;;;;;;;;18.40;99.90;;;;;;5061075;28;20043;-65
2023/05/20 09:57:22;;;;;;;;;;;18.50;99.90;;;;;;5063904;28;19928;-65
2023/05/20 09:59:50;;;;;;;;;;;18.60;99.90;;;;;;5060357;28;20456;-64
2023/05/20 10:02:21;;;;;;;;;;;18.80;99.90;;;;;;5061560;28;19950;-64
2023/05/20 10:04:54;;;;;;;;;;;18.90;99.90;;;;;;5061973;28;19934;-65
2023/05/20 10:07:46;;;;;;;;;;;19.10;99.90;;;;;;5066814;28;19940;-65
2023/05/20 10:10:26;;;;;;;;;;;19.40;99.90;;;;;;5061687;28;19924;-64
2023/05/20 10:13:17;;;;;;;;;;;19.60;99.90;;;;;;5059637;28;19925;-64
2023/05/20 10:16:02;;;;;;;;;;;19.90;99.90;;;;;;5054878;28;19929;-65
2023/05/20 10:18:37;;;;;;;;;;;20.10;99.90;;;;;;5066007;28;19931;-65
2023/05/20 10:21:16;;;;;;;;;;;20.20;99.90;;;;;;5062770;28;20019;-65
2023/05/20 10:23:47;;;;;;;;;;;20.30;99.90;;;;;;5061757;28;19935;-64
2023/05/20 10:26:21;;;;;;;;;;;20.20;99.90;;;;;;5066923;28;19925;-65
2023/05/20 10:28:47;;;;;;;;;;;20.10;99.90;;;;;;5057597;28;19931;-64
2023/05/20 10:31:20;;;;;;;;;;;20.00;99.90;;;;;;5061386;28;19924;-64
2023/05/20 10:33:52;;;;;;;;;;;20.00;99.90;;;;;;5056840;28;20385;-65
2023/05/20 10:36:27;;;;;;;;;;;19.90;99.90;;;;;;5060664;28;20308;-65
2023/05/20 10:38:59;;;;;;;;;;;19.90;99.90;;;;;;5060938;28;19924;-64
2023/05/20 10:41:33;;;;;;;;;;;20.00;99.90;;;;;;5060017;28;19975;-65
2023/05/20 10:44:05;;;;;;;;;;;20.00;99.90;;;;;;5068189;28;19931;-65
2023/05/20 10:46:38;;;;;;;;;;;20.00;99.90;;;;;;5048751;28;19928;-65
2023/05/20 10:49:16;;;;;;;;;;;20.10;99.90;;;;;;5063990;28;19950;-64
2023/05/20 10:51:43;;;;;;;;;;;20.10;99.90;;;;;;5061806;28;19935;-65
2023/05/20 10:54:15;;;;;;;;;;;20.20;99.90;;;;;;5062355;28;19931;-65
2023/05/20 10:56:53;;;;;;;;;;;20.20;99.90;;;;;;5058029;28;20024;-64
2023/05/20 10:59:25;;;;;;;;;;;20.20;99.90;;;;;;5057603;28;19968;-65
2023/05/20 11:01:58;;;;;;;;;;;20.20;99.90;;;;;;5058784;28;20385;-65
2023/05/20 11:04:25;;;;;;;;;;;20.20;99.90;;;;;;5061815;28;20395;-64
2023/05/20 11:06:57;;;;;;;;;;;20.20;99.90;;;;;;5067019;28;20548;-65
2023/05/20 11:09:30;;;;;;;;;;;20.20;99.90;;;;;;5065259;28;19925;-65
2023/05/20 11:12:02;;;;;;;;;;;20.20;99.90;;;;;;5065431;28;19929;-65
2023/05/20 11:14:34;;;;;;;;;;;20.20;99.90;;;;;;5060772;28;19932;-64
2023/05/20 11:17:06;;;;;;;;;;;20.20;99.90;;;;;;5060892;28;19929;-64
2023/05/20 11:19:38;;;;;;;;;;;20.20;99.90;;;;;;5058026;28;20300;-64
2023/05/20 11:22:09;;;;;;;;;;;20.30;99.90;;;;;;5057051;28;19929;-64
2023/05/20 11:24:41;;;;;;;;;;;20.40;99.90;;;;;;5056513;28;20030;-65
2023/05/20 11:27:13;;;;;;;;;;;20.50;99.90;;;;;;5062810;28;19939;-64
2023/05/20 11:29:39;;;;;;;;;;;20.60;99.90;;;;;;5069175;28;19929;-65
2023/05/20 11:32:11;;;;;;;;;;;20.70;99.90;;;;;;5067357;28;19925;-64
2023/05/20 11:34:42;;;;;;;;;;;20.80;99.90;;;;;;5065215;28;19925;-64
2023/05/20 11:37:14;;;;;;;;;;;20.90;99.90;;;;;;5062517;28;19929;-65
2023/05/20 11:39:46;;;;;;;;;;;21.00;99.90;;;;;;5061049;28;20316;-64
2023/05/20 11:42:18;;;;;;;;;;;21.10;99.90;;;;;;5057791;28;20399;-64
2023/05/20 11:44:50;;;;;;;;;;;21.10;99.90;;;;;;5057131;28;19929;-65
2023/05/20 11:47:28;;;;;;;;;;;21.20;99.90;;;;;;5061808;28;19954;-65
2023/05/20 11:50:00;;;;;;;;;;;21.10;99.90;;;;;;5055752;28;19932;-64
2023/05/20 11:52:32;;;;;;;;;;;21.10;99.90;;;;;;5069710;28;21059;-65
2023/05/20 11:54:59;;;;;;;;;;;21.00;99.90;;;;;;5067271;28;19932;-65
2023/05/20 11:57:31;;;;;;;;;;;21.10;99.90;;;;;;5065314;28;19928;-64
2023/05/20 11:59:57;;;;;;;;;;;21.30;99.90;;;;;;5063685;28;20364;-65
2023/05/20 12:02:30;;;;;;;;;;;21.40;99.90;;;;;;5061129;28;19975;-65
2023/05/20 12:05:03;;;;;;;;;;;21.70;99.90;;;;;;5058327;28;20024;-64
2023/05/20 12:07:35;;;;;;;;;;;22.10;99.90;;;;;;5056870;28;19951;-65
2023/05/20 12:10:07;;;;;;;;;;;22.30;99.90;;;;;;5054859;28;19925;-64
2023/05/20 12:12:39;;;;;;;;;;;22.60;99.90;;;;;;5057345;28;20423;-64
2023/05/20 12:15:11;;;;;;;;;;;22.80;99.90;;;;;;5070097;28;19928;-65
2023/05/20 12:17:45;;;;;;;;;;;22.90;99.90;;;;;;5068445;28;19969;-64
2023/05/20 12:20:17;;;;;;;;;;;23.00;99.90;;;;;;5065535;28;19932;-65
2023/05/20 12:22:44;;;;;;;;;;;23.10;99.90;;;;;;5065080;28;19935;-65
2023/05/20 12:25:18;;;;;;;;;;;23.20;99.90;;;;;;5064395;28;19925;-66
2023/05/20 12:27:50;;;;;;;;;;;23.30;99.90;;;;;;5068356;28;19928;-64
2023/05/20 12:30:22;;;;;;;;;;;23.30;99.90;;;;;;5066336;28;19925;-64
2023/05/20 12:32:54;;;;;;;;;;;23.00;99.90;;;;;;5066244;28;19931;-65
2023/05/20 12:35:37;;;;;;;;;;;22.90;99.90;;;;;;5068163;28;19925;-65
2023/05/20 12:38:09;;;;;;;;;;;22.90;99.90;;;;;;5067390;28;19929;-65
2023/05/20 12:40:41;;;;;;;;;;;23.10;99.90;;;;;;5061678;28;19935;-65
2023/05/20 12:43:12;;;;;;;;;;;23.30;99.90;;;;;;5063504;28;19932;-64
2023/05/20 12:45:44;;;;;;;;;;;23.60;99.90;;;;;;5062078;28;20444;-65
2023/05/20 12:48:16;;;;;;;;;;;23.90;99.90;;;;;;5067119;28;20300;-65
2023/05/20 12:50:47;;;;;;;;;;;24.10;99.90;;;;;;5066341;28;20380;-65
2023/05/20 12:53:19;;;;;;;;;;;24.30;99.90;;;;;;5064339;28;19935;-65
2023/05/20 12:55:46;;;;;;;;;;;24.50;99.90;;;;;;5068444;28;19981;-65
2023/05/20 12:58:13;;;;;;;;;;;24.60;99.90;;;;;;5068787;28;19933;-65
2023/05/20 13:00:44;;;;;;;;;;;24.70;99.90;;;;;;5062709;28;19929;-65
2023/05/20 13:03:16;;;;;;;;;;;24.60;99.90;;;;;;5060144;28;19924;-64
2023/05/20 13:05:48;;;;;;;;;;;24.40;99.90;;;;;;5061178;28;19948;-65
2023/05/20 13:08:20;;;;;;;;;;;24.20;99.90;;;;;;5061463;28;19931;-64
2023/05/20 13:10:52;;;;;;;;;;;23.90;99.90;;;;;;5063067;28;20312;-65
2023/05/20 13:13:23;;;;;;;;;;;23.70;99.90;;;;;;5066748;28;19981;-65
2023/05/20 13:15:55;;;;;;;;;;;23.70;99.90;;;;;;5044852;28;20039;-65
2023/05/20 13:18:27;;;;;;;;;;;23.80;99.90;;;;;;5067819;28;19924;-65
2023/05/20 13:20:58;;;;;;;;;;;23.90;99.90;;;;;;5063712;28;19931;-65
2023/05/20 13:23:30;;;;;;;;;;;24.20;99.90;;;;;;5064752;28;20320;-65
2023/05/20 13:26:02;;;;;;;;;;;24.20;99.90;;;;;;5064723;28;20308;-65
2023/05/20 13:28:34;;;;;;;;;;;24.40;99.90;;;;;;5064270;28;19931;-65
2023/05/20 13:31:06;;;;;;;;;;;24.50;99.90;;;;;;5063588;28;19929;-65
2023/05/20 13:33:37;;;;;;;;;;;24.70;99.90;;;;;;5059892;28;19925;-65
2023/05/20 13:36:09;;;;;;;;;;;24.80;99.90;;;;;;5064829;28;19935;-65
2023/05/20 13:38:41;;;;;;;;;;;24.90;99.90;;;;;;5065406;28;19929;-65
2023/05/20 13:41:13;;;;;;;;;;;25.00;99.90;;;;;;5065165;28;19932;-68
2023/05/20 13:43:45;;;;;;;;;;;25.20;99.90;;;;;;5065257;28;19929;-68
2023/05/20 13:46:17;;;;;;;;;;;25.40;99.90;;;;;;5060944;28;20396;-67
2023/05/20 13:48:43;;;;;;;;;;;25.50;99.90;;;;;;5056146;28;20453;-68
2023/05/20 13:51:15;;;;;;;;;;;25.60;99.90;;;;;;5058370;28;19924;-66
2023/05/20 13:53:47;;;;;;;;;;;25.70;99.90;;;;;;5059678;28;19932;-66
2023/05/20 13:56:19;;;;;;;;;;;25.70;99.90;;;;;;5063575;28;20319;-65
2023/05/20 13:58:50;;;;;;;;;;;25.70;99.90;;;;;;5058040;28;19924;-65
2023/05/20 14:01:22;;;;;;;;;;;25.80;99.90;;;;;;5064033;28;20027;-65
2023/05/20 14:03:54;;;;;;;;;;;25.80;99.90;;;;;;5060799;28;19932;-65
2023/05/20 14:06:28;;;;;;;;;;;25.80;99.90;;;;;;5067855;28;19924;-65
2023/05/20 14:08:55;;;;;;;;;;;25.80;99.90;;;;;;5059535;28;20419;-65
2023/05/20 14:11:27;;;;;;;;;;;25.80;99.90;;;;;;5068288;28;19946;-66
2023/05/20 14:13:58;;;;;;;;;;;25.80;99.90;;;;;;5062589;28;19931;-65
2023/05/20 14:16:31;;;;;;;;;;;25.70;99.90;;;;;;5064060;28;19968;-65
2023/05/20 14:19:03;;;;;;;;;;;25.70;99.90;;;;;;5069943;28;19986;-65
2023/05/20 14:21:34;;;;;;;;;;;25.70;99.90;;;;;;5066281;28;19929;-65
2023/05/20 14:24:01;;;;;;;;;;;25.60;99.90;;;;;;5064279;28;20015;-66
2023/05/20 14:26:33;;;;;;;;;;;25.70;99.90;;;;;;5063002;28;20305;-65
2023/05/20 14:29:00;;;;;;;;;;;25.50;99.90;;;;;;5065254;28;19936;-65
2023/05/20 14:31:31;;;;;;;;;;;25.40;99.90;;;;;;5068525;28;19994;-65
2023/05/20 14:34:03;;;;;;;;;;;25.30;99.90;;;;;;5066082;28;19930;-65
2023/05/20 14:36:35;;;;;;;;;;;25.20;99.90;;;;;;5065444;28;19925;-65
2023/05/20 14:39:06;;;;;;;;;;;25.10;99.90;;;;;;5064835;28;19948;-65
2023/05/20 14:41:38;;;;;;;;;;;24.90;99.90;;;;;;5050988;28;19925;-66